< < Back
Terminal Aerodrome Forecast


Current Version              Previous Versions:   1  2  3  4  5  6  7  8  9  

Terminal Aerodrome Forecast

344
FTUS42 KGSP 031736
TAFAND
TAF
KAND 031736Z 0318/0418 23012G20KT P6SM VCSH SCT015 OVC035
      TEMPO 0318/0322 -SHRA BKN015 OVC025
     FM032200 25013G21KT P6SM VCSH BKN040 OVC120
     FM040200 25007KT P6SM SCT050 BKN120
     FM040800 24006KT P6SM VCSH OVC020
     FM041500 24011KT P6SM VCSH OVC040=

Latest METAR

126
SAUS70 KWBC 041100
MTRAND
METAR KAND 041056Z AUTO 24008KT 10SM FEW100 FEW120 23/20 A3002 RMK AO2
SLP157 T02280200


USA.gov is the U.S. government's official web portal to all federal, state and local government web resources and services.